createdAt,value
2018-04-23T00:01:39.595Z,21.43
2018-04-23T00:04:05.902Z,29.07
2018-04-23T00:06:32.200Z,17.53
2018-04-23T00:08:58.512Z,23.40
2018-04-23T00:11:24.864Z,16.47
2018-04-23T00:13:51.144Z,16.07
2018-04-23T00:16:18.197Z,23.83
2018-04-23T00:18:44.479Z,16.97
2018-04-23T00:21:10.811Z,19.70
2018-04-23T00:23:37.083Z,19.00
2018-04-23T00:26:04.178Z,18.70
2018-04-23T00:28:30.478Z,16.87
2018-04-23T00:30:56.753Z,18.50
2018-04-23T00:33:23.026Z,20.60
2018-04-23T00:35:49.302Z,25.10
2018-04-23T00:38:15.598Z,19.70
2018-04-23T00:40:41.826Z,16.67
2018-04-23T00:43:08.085Z,16.13
2018-04-23T00:45:34.394Z,21.93
2018-04-23T00:48:00.669Z,20.67
2018-04-23T00:50:26.958Z,21.30
2018-04-23T00:55:59.372Z,26.30
2018-04-23T00:58:25.678Z,22.20
2018-04-23T01:00:51.997Z,23.40
2018-04-23T01:03:18.515Z,27.50
2018-04-23T01:05:45.572Z,28.63
2018-04-23T01:08:11.897Z,25.30
2018-04-23T01:10:38.949Z,31.33
2018-04-23T01:13:06.018Z,25.83
2018-04-23T01:15:32.335Z,23.33
2018-04-23T01:17:58.702Z,23.93
2018-04-23T01:20:25.024Z,23.97
2018-04-23T01:22:51.357Z,25.60
2018-04-23T01:25:17.714Z,22.10
2018-04-23T01:27:44.033Z,27.87
2018-04-23T01:30:10.349Z,23.77
2018-04-23T01:32:36.645Z,24.83
2018-04-23T01:35:03.646Z,25.60
2018-04-23T01:37:29.920Z,28.23
2018-04-23T01:39:56.976Z,23.20
2018-04-23T01:42:24.089Z,23.07
2018-04-23T01:44:50.377Z,26.77
2018-04-23T01:47:16.672Z,32.10
2018-04-23T01:49:43.703Z,24.40
2018-04-23T01:52:10.015Z,22.67
2018-04-23T01:54:36.337Z,25.07
2018-04-23T01:57:02.626Z,25.30
2018-04-23T01:59:29.696Z,19.33
2018-04-23T02:01:56.021Z,21.63
2018-04-23T02:04:22.380Z,19.90
2018-04-23T02:06:48.685Z,23.27
2018-04-23T02:09:15.007Z,26.20
2018-04-23T02:11:41.289Z,21.17
2018-04-23T02:14:07.636Z,24.23
2018-04-23T02:16:33.944Z,28.93
2018-04-23T02:19:00.217Z,25.07
2018-04-23T02:21:27.265Z,24.10
2018-04-23T02:23:54.319Z,27.97
2018-04-23T02:26:21.615Z,27.83
2018-04-23T02:28:47.960Z,25.60
2018-04-23T02:31:14.485Z,25.17
2018-04-23T02:33:40.771Z,28.80
2018-04-23T02:36:07.067Z,25.33
2018-04-23T02:38:33.364Z,27.77
2018-04-23T02:40:59.696Z,26.13
2018-04-23T02:43:26.008Z,27.00
2018-04-23T02:45:52.527Z,26.17
2018-04-23T02:48:19.559Z,25.03
2018-04-23T02:50:46.626Z,23.93
2018-04-23T02:53:12.932Z,32.37
2018-04-23T02:55:39.972Z,28.80
2018-04-23T02:58:06.261Z,31.43
2018-04-23T03:00:32.566Z,28.70
2018-04-23T03:02:59.691Z,29.23
2018-04-23T03:05:26.051Z,27.90
2018-04-23T03:07:52.341Z,27.90
2018-04-23T03:10:18.619Z,31.20
2018-04-23T03:12:44.896Z,34.50
2018-04-23T03:15:11.196Z,28.27
2018-04-23T03:17:37.471Z,27.60
2018-04-23T03:20:04.499Z,26.67
2018-04-23T03:22:30.769Z,29.73
2018-04-23T03:24:57.895Z,27.93
2018-04-23T03:27:24.195Z,32.10
2018-04-23T03:29:50.458Z,25.30
2018-04-23T03:32:16.742Z,25.07
2018-04-23T03:34:43.005Z,26.10
2018-04-23T03:37:09.311Z,31.20
2018-04-23T03:39:35.592Z,24.53
2018-04-23T03:42:02.671Z,30.73
2018-04-23T03:44:28.994Z,27.10
2018-04-23T03:46:55.321Z,26.60
2018-04-23T03:49:21.594Z,30.07
2018-04-23T03:51:47.862Z,27.27
2018-04-23T03:54:14.921Z,28.33
2018-04-23T03:56:42.008Z,32.57
2018-04-23T03:59:09.383Z,32.80
2018-04-23T04:01:38.480Z,27.30
2018-04-23T04:04:04.771Z,32.23
2018-04-23T04:06:31.065Z,32.60
2018-04-23T04:08:58.148Z,24.53
2018-04-23T04:11:24.463Z,30.40
2018-04-23T04:17:05.251Z,27.53
2018-04-23T04:19:31.531Z,22.50
2018-04-23T04:21:57.807Z,20.67
2018-04-23T04:24:24.879Z,21.93
2018-04-23T04:26:51.153Z,20.30
2018-04-23T04:29:17.471Z,22.43
2018-04-23T04:31:43.762Z,21.57
2018-04-23T04:34:10.044Z,20.83
2018-04-23T04:36:36.287Z,19.77
2018-04-23T04:39:02.571Z,20.40
2018-04-23T04:41:28.838Z,19.60
2018-04-23T04:43:55.162Z,22.77
2018-04-23T04:46:21.446Z,18.17
2018-04-23T04:48:47.758Z,14.17
2018-04-23T04:51:14.730Z,21.77
2018-04-23T04:53:41.005Z,12.30
2018-04-23T04:56:07.313Z,12.60
2018-04-23T04:58:34.631Z,15.40
2018-04-23T05:01:00.915Z,14.63
2018-04-23T05:03:27.230Z,13.23
2018-04-23T05:05:53.612Z,19.07
2018-04-23T05:08:19.897Z,23.03
2018-04-23T05:10:46.180Z,15.77
2018-04-23T05:13:12.473Z,14.60
2018-04-23T05:15:39.656Z,13.40
2018-04-23T05:18:05.944Z,13.30
2018-04-23T05:20:32.230Z,15.50
2018-04-23T05:22:58.532Z,15.60
2018-04-23T05:25:24.844Z,15.93
2018-04-23T05:27:51.112Z,21.30
2018-04-23T05:30:18.149Z,13.30
2018-04-23T05:32:45.155Z,17.00
2018-04-23T05:35:11.454Z,17.57
2018-04-23T05:37:37.734Z,15.83
2018-04-23T05:40:04.030Z,18.10
2018-04-23T05:42:30.361Z,12.30
2018-04-23T05:44:56.662Z,16.53
2018-04-23T05:47:22.928Z,17.13
2018-04-23T05:49:49.216Z,14.90
2018-04-23T05:52:16.265Z,14.23
2018-04-23T05:54:43.295Z,17.70
2018-04-23T05:57:10.291Z,19.10
2018-04-23T05:59:36.636Z,18.03
2018-04-23T06:02:02.965Z,11.40
2018-04-23T06:04:29.246Z,12.60
2018-04-23T06:06:56.640Z,14.30
2018-04-23T06:09:22.894Z,14.50
2018-04-23T06:11:49.193Z,10.07
2018-04-23T06:14:15.478Z,12.97
2018-04-23T06:16:41.779Z,16.27
2018-04-23T06:19:08.098Z,13.50
2018-04-23T06:22:00.676Z,10.50
2018-04-23T06:24:28.992Z,12.87
2018-04-23T06:26:55.277Z,17.27
2018-04-23T06:29:21.580Z,12.83
2018-04-23T06:31:47.887Z,12.80
2018-04-23T06:34:14.202Z,8.57
2018-04-23T06:36:41.280Z,10.60
2018-04-23T06:39:07.573Z,10.67
2018-04-23T06:41:34.641Z,17.67
2018-04-23T06:44:00.939Z,7.40
2018-04-23T06:46:27.322Z,8.67
2018-04-23T06:48:53.614Z,14.17
2018-04-23T06:51:20.730Z,10.93
2018-04-23T06:53:47.039Z,16.23
2018-04-23T06:56:13.306Z,15.70
2018-04-23T06:58:39.843Z,15.10
2018-04-23T07:01:06.155Z,8.80
2018-04-23T07:03:32.544Z,10.53
2018-04-23T07:05:58.920Z,8.97
2018-04-23T07:08:25.250Z,14.40
2018-04-23T07:10:51.594Z,8.73
2018-04-23T07:13:17.953Z,13.23
2018-04-23T07:15:44.989Z,13.13
2018-04-23T07:18:11.275Z,7.43
2018-04-23T07:20:37.584Z,9.83
2018-04-23T07:23:03.995Z,12.53
2018-04-23T07:25:33.592Z,13.63
2018-04-23T07:28:00.809Z,15.80
2018-04-23T07:30:27.116Z,13.00
2018-04-23T07:32:53.462Z,9.40
2018-04-23T07:35:19.771Z,8.00
2018-04-23T07:37:47.150Z,13.77
2018-04-23T07:40:13.460Z,9.80
2018-04-23T07:42:39.951Z,12.97
2018-04-23T07:45:06.462Z,15.60
2018-04-23T07:47:32.819Z,15.10
2018-04-23T07:49:59.193Z,17.30
2018-04-23T07:52:25.524Z,9.27
2018-04-23T07:54:51.818Z,7.87
2018-04-23T07:57:18.128Z,14.30
2018-04-23T07:59:44.511Z,11.60
2018-04-23T08:02:10.957Z,13.50
2018-04-23T08:04:37.555Z,13.13
2018-04-23T08:07:04.050Z,13.70
2018-04-23T08:09:30.395Z,16.53
2018-04-23T08:11:56.753Z,14.53
2018-04-23T08:14:23.053Z,16.67
2018-04-23T08:16:49.407Z,13.40
2018-04-23T08:19:17.216Z,17.50
2018-04-23T08:21:43.582Z,10.63
2018-04-23T08:24:09.917Z,13.00
2018-04-23T08:26:36.223Z,18.37
2018-04-23T08:29:02.528Z,12.80
2018-04-23T08:31:29.610Z,12.83
2018-04-23T08:33:55.925Z,15.23
2018-04-23T08:36:22.235Z,13.63
2018-04-23T08:38:49.315Z,21.90
2018-04-23T08:41:15.668Z,16.57
2018-04-23T08:43:42.039Z,12.47
2018-04-23T08:46:08.327Z,16.73
2018-04-23T08:48:34.638Z,14.60
2018-04-23T08:51:00.979Z,11.20
2018-04-23T08:53:27.277Z,13.43
2018-04-23T08:55:54.353Z,14.23
2018-04-23T08:58:21.389Z,12.80
2018-04-23T09:00:47.702Z,18.17
2018-04-23T09:03:14.694Z,14.50
2018-04-23T09:05:41.022Z,13.13
2018-04-23T09:08:07.307Z,19.93
2018-04-23T09:10:34.347Z,16.70
2018-04-23T09:13:01.407Z,14.90
2018-04-23T09:15:28.431Z,10.77
2018-04-23T09:17:54.683Z,11.33
2018-04-23T09:20:20.974Z,23.00
2018-04-23T09:22:47.268Z,19.00
2018-04-23T09:25:13.562Z,21.53
2018-04-23T09:27:40.609Z,17.97
2018-04-23T09:30:07.655Z,17.90
2018-04-23T09:32:34.658Z,16.00
2018-04-23T09:35:00.932Z,14.20
2018-04-23T09:37:27.957Z,15.80
2018-04-23T09:39:54.238Z,20.37
2018-04-23T09:42:20.493Z,15.23
2018-04-23T09:44:46.803Z,17.23
2018-04-23T09:47:13.131Z,18.73
2018-04-23T09:49:39.435Z,15.70
2018-04-23T09:52:06.443Z,11.17
2018-04-23T09:54:32.705Z,11.40
2018-04-23T09:56:59.009Z,17.93
2018-04-23T09:59:25.263Z,15.67
2018-04-23T10:01:51.569Z,15.47
2018-04-23T10:04:20.834Z,17.03
2018-04-23T10:06:47.142Z,12.37
2018-04-23T10:09:14.175Z,11.10
2018-04-23T10:11:40.486Z,23.53
2018-04-23T10:14:06.970Z,18.20
2018-04-23T10:16:33.272Z,20.73
2018-04-23T10:18:59.576Z,14.63
2018-04-23T10:21:25.929Z,13.47
2018-04-23T10:23:52.258Z,20.17
2018-04-23T10:26:18.566Z,19.77
2018-04-23T10:28:44.923Z,13.03
2018-04-23T10:31:11.235Z,13.80
2018-04-23T10:33:37.596Z,9.33
2018-04-23T10:36:04.659Z,13.70
2018-04-23T10:38:30.939Z,9.17
2018-04-23T10:40:57.214Z,13.13
2018-04-23T10:43:24.216Z,16.43
2018-04-23T10:45:50.532Z,12.63
2018-04-23T10:48:16.832Z,12.73
2018-04-23T10:50:43.180Z,16.27
2018-04-23T10:53:09.489Z,13.30
2018-04-23T10:55:36.565Z,13.53
2018-04-23T10:58:02.937Z,17.33
2018-04-23T11:00:29.233Z,16.00
2018-04-23T11:02:55.502Z,15.27
2018-04-23T11:05:21.776Z,13.53
2018-04-23T11:07:48.054Z,18.80
2018-04-23T11:10:14.473Z,14.83
2018-04-23T11:12:40.739Z,20.90
2018-04-23T11:15:07.788Z,11.40
2018-04-23T11:17:34.166Z,14.33
2018-04-23T11:20:00.466Z,12.63
2018-04-23T11:22:26.800Z,12.83
2018-04-23T11:24:53.257Z,17.30
2018-04-23T11:27:19.573Z,20.90
2018-04-23T11:29:45.854Z,15.93
2018-04-23T11:32:12.941Z,14.63
2018-04-23T11:34:39.235Z,14.97
2018-04-23T11:37:06.999Z,14.97
2018-04-23T11:39:34.007Z,21.40
2018-04-23T11:42:00.286Z,11.77
2018-04-23T11:44:26.616Z,16.53
2018-04-23T11:46:52.911Z,17.43
2018-04-23T11:49:19.274Z,13.90
2018-04-23T11:51:45.559Z,11.63
2018-04-23T11:54:11.828Z,11.00
2018-04-23T11:56:38.217Z,9.63
2018-04-23T11:59:04.499Z,14.90
2018-04-23T12:01:30.748Z,10.27
2018-04-23T12:03:57.813Z,11.13
2018-04-23T12:06:24.105Z,18.33
2018-04-23T12:08:50.698Z,11.70
2018-04-23T12:11:17.274Z,15.20
2018-04-23T12:13:43.520Z,15.83
2018-04-23T12:16:09.838Z,18.20
2018-04-23T12:18:43.095Z,12.03
2018-04-23T12:21:09.455Z,16.67
2018-04-23T12:23:35.761Z,7.33
2018-04-23T12:26:02.102Z,23.73
2018-04-23T12:28:28.377Z,13.20
2018-04-23T12:30:55.407Z,13.80
2018-04-23T12:33:21.689Z,21.73
2018-04-23T12:35:47.954Z,8.67
2018-04-23T12:38:14.290Z,18.93
2018-04-23T12:40:40.580Z,14.03
2018-04-23T12:43:06.888Z,16.20
2018-04-23T12:45:33.924Z,18.80
2018-04-23T12:48:01.714Z,13.57
2018-04-23T12:50:28.051Z,18.97
2018-04-23T12:52:54.323Z,20.33
2018-04-23T12:55:20.597Z,14.33
2018-04-23T12:57:46.897Z,12.27
2018-04-23T13:00:13.189Z,14.30
2018-04-23T13:02:39.612Z,14.73
2018-04-23T13:05:05.898Z,13.60
2018-04-23T13:07:32.190Z,11.60
2018-04-23T13:09:58.505Z,14.07
2018-04-23T13:12:24.759Z,12.27
2018-04-23T13:14:51.007Z,17.67
2018-04-23T13:17:17.271Z,23.53
2018-04-23T13:19:43.611Z,11.30
2018-04-23T13:22:09.889Z,10.90
2018-04-23T13:24:36.257Z,15.00
2018-04-23T13:27:03.252Z,15.60
2018-04-23T13:29:29.616Z,13.00
2018-04-23T13:31:55.915Z,12.93
2018-04-23T13:34:22.319Z,14.83
2018-04-23T13:36:48.595Z,9.50
2018-04-23T13:39:14.896Z,13.47
2018-04-23T13:41:41.187Z,12.97
2018-04-23T13:44:08.203Z,13.17
2018-04-23T13:46:34.493Z,11.20
2018-04-23T13:49:00.865Z,13.53
2018-04-23T13:51:27.133Z,17.10
2018-04-23T13:53:54.215Z,12.57
2018-04-23T13:56:20.506Z,9.17
2018-04-23T13:58:47.532Z,15.50
2018-04-23T14:01:13.765Z,16.00
2018-04-23T14:03:40.041Z,11.40
2018-04-23T14:06:06.403Z,17.73
2018-04-23T14:08:32.719Z,14.07
2018-04-23T14:10:59.008Z,12.57
2018-04-23T14:13:26.046Z,19.87
2018-04-23T14:15:53.239Z,17.43
2018-04-23T14:18:19.504Z,20.50
2018-04-23T14:20:45.823Z,14.83
2018-04-23T14:23:12.131Z,15.80
2018-04-23T14:25:38.429Z,12.03
2018-04-23T14:28:05.545Z,20.33
2018-04-23T14:30:31.830Z,17.67
2018-04-23T14:32:58.124Z,18.13
2018-04-23T14:35:25.146Z,13.50
2018-04-23T14:37:51.423Z,20.03
2018-04-23T14:40:17.735Z,19.20
2018-04-23T14:42:44.759Z,19.03
2018-04-23T14:45:11.071Z,17.33
2018-04-23T14:47:38.367Z,19.60
2018-04-23T14:50:05.414Z,17.87
2018-04-23T14:52:32.456Z,13.50
2018-04-23T14:54:59.505Z,12.80
2018-04-23T14:57:25.792Z,17.40
2018-04-23T14:59:52.116Z,16.73
2018-04-23T15:02:18.435Z,21.93
2018-04-23T15:04:44.690Z,16.83
2018-04-23T15:07:10.957Z,17.00
2018-04-23T15:09:37.473Z,26.57
2018-04-23T15:12:04.819Z,22.90
2018-04-23T15:14:31.154Z,18.43
2018-04-23T15:16:57.456Z,19.70
2018-04-23T15:19:23.777Z,16.20
2018-04-23T15:21:50.063Z,19.20
2018-04-23T15:24:16.468Z,23.60
2018-04-23T15:26:42.767Z,25.50
2018-04-23T15:29:09.135Z,25.83
2018-04-23T15:31:35.447Z,34.50
2018-04-23T15:34:01.771Z,26.30
2018-04-23T15:36:28.033Z,29.97
2018-04-23T15:38:54.469Z,27.93
2018-04-23T15:41:20.788Z,35.67
2018-04-23T15:43:47.077Z,25.83
2018-04-23T15:46:13.408Z,27.07
2018-04-23T15:48:39.740Z,28.53
2018-04-23T15:51:06.058Z,26.77
2018-04-23T15:53:33.188Z,27.40
2018-04-23T15:55:59.559Z,20.90
2018-04-23T15:58:26.877Z,18.60
2018-04-23T16:00:53.185Z,21.33
2018-04-23T16:03:19.570Z,23.77
2018-04-23T16:05:45.835Z,20.60
2018-04-23T16:08:12.124Z,19.57
2018-04-23T16:10:39.184Z,16.47
2018-04-23T16:13:05.518Z,22.73
2018-04-23T16:15:31.840Z,15.37
2018-04-23T16:17:58.888Z,22.37
2018-04-23T16:20:25.211Z,15.10
2018-04-23T16:22:52.245Z,22.33
2018-04-23T16:25:19.401Z,20.67
2018-04-23T16:27:46.455Z,16.57
2018-04-23T16:30:13.567Z,22.07
2018-04-23T16:32:39.956Z,23.27
2018-04-23T16:35:06.321Z,15.03
2018-04-23T16:37:32.650Z,19.00
2018-04-23T16:39:59.017Z,16.50
2018-04-23T16:42:26.077Z,18.43
2018-04-23T16:44:53.209Z,18.77
2018-04-23T16:47:19.573Z,24.73
2018-04-23T16:49:46.776Z,22.47
2018-04-23T16:52:13.191Z,20.83
2018-04-23T16:54:39.586Z,20.97
2018-04-23T16:57:05.890Z,28.00
2018-04-23T16:59:33.210Z,17.40
2018-04-23T17:01:59.546Z,25.60
2018-04-23T17:04:25.843Z,31.40
2018-04-23T17:06:52.165Z,26.90
2018-04-23T17:09:19.304Z,25.27
2018-04-23T17:11:46.351Z,21.60
2018-04-23T17:14:13.467Z,18.47
2018-04-23T17:16:39.731Z,27.10
2018-04-23T17:19:07.044Z,21.20
2018-04-23T17:21:33.433Z,23.30
2018-04-23T17:23:59.730Z,20.93
2018-04-23T17:26:26.014Z,28.53
2018-04-23T17:28:52.309Z,20.30
2018-04-23T17:31:19.385Z,19.93
2018-04-23T17:33:45.854Z,25.80
2018-04-23T17:36:13.004Z,27.20
2018-04-23T17:38:39.376Z,33.27
2018-04-23T17:41:06.452Z,24.10
2018-04-23T17:43:32.900Z,27.10
2018-04-23T17:45:59.244Z,26.00
2018-04-23T17:48:25.646Z,24.13
2018-04-23T17:50:52.008Z,38.90
2018-04-23T17:53:18.324Z,34.67
2018-04-23T17:55:44.651Z,26.33
2018-04-23T17:58:11.018Z,26.73
2018-04-23T18:00:37.422Z,19.37
2018-04-23T18:03:03.807Z,22.40
2018-04-23T18:05:30.913Z,36.00
2018-04-23T18:07:57.200Z,27.73
2018-04-23T18:10:24.326Z,22.83
2018-04-23T18:12:50.726Z,30.40
2018-04-23T18:15:17.074Z,29.77
2018-04-23T18:17:43.391Z,28.23
2018-04-23T18:20:09.754Z,31.67
2018-04-23T18:22:36.195Z,33.13
2018-04-23T18:25:03.505Z,25.70
2018-04-23T18:27:29.787Z,38.00
2018-04-23T18:29:56.871Z,28.10
2018-04-23T18:32:23.154Z,31.83
2018-04-23T18:34:49.656Z,31.53
2018-04-23T18:37:16.004Z,23.90
2018-04-23T18:39:42.367Z,26.07
2018-04-23T18:42:09.446Z,28.73
2018-04-23T18:44:35.831Z,28.97
2018-04-23T18:47:02.269Z,29.50
2018-04-23T18:49:28.601Z,28.27
2018-04-23T18:51:54.968Z,26.73
2018-04-23T18:54:21.324Z,27.60
2018-04-23T18:56:47.667Z,26.33
2018-04-23T18:59:14.045Z,37.83
2018-04-23T19:01:41.113Z,28.53
2018-04-23T19:04:07.546Z,30.83
2018-04-23T19:06:33.845Z,31.20
2018-04-23T19:09:00.186Z,32.60
2018-04-23T19:11:27.219Z,32.13
2018-04-23T19:13:53.534Z,35.63
2018-04-23T19:16:19.818Z,34.33
2018-04-23T19:18:46.097Z,31.77
2018-04-23T19:21:12.445Z,34.57
2018-04-23T19:23:38.717Z,31.37
2018-04-23T19:26:05.090Z,29.37
2018-04-23T19:28:31.396Z,32.40
2018-04-23T19:30:57.697Z,23.80
2018-04-23T19:33:24.062Z,28.40
2018-04-23T19:35:50.385Z,27.70
2018-04-23T19:38:16.803Z,28.73
2018-04-23T19:40:43.102Z,22.67
2018-04-23T19:43:09.436Z,29.53
2018-04-23T19:45:36.505Z,33.20
2018-04-23T19:48:02.834Z,28.47
2018-04-23T19:50:29.177Z,29.10
2018-04-23T19:52:55.491Z,25.33
2018-04-23T19:55:22.599Z,25.60
2018-04-23T19:57:48.969Z,30.00
2018-04-23T20:00:15.258Z,24.43
2018-04-23T20:02:41.544Z,25.50
2018-04-23T20:05:07.830Z,23.90
2018-04-23T20:07:34.107Z,25.13
2018-04-23T20:10:00.399Z,31.60
2018-04-23T20:12:26.763Z,34.57
2018-04-23T20:14:53.140Z,31.27
2018-04-23T20:17:19.481Z,27.63
2018-04-23T20:19:45.836Z,28.23
2018-04-23T20:22:12.166Z,33.63
2018-04-23T20:24:39.285Z,29.40
2018-04-23T20:27:05.617Z,27.90
2018-04-23T20:29:31.900Z,26.07
2018-04-23T20:31:58.246Z,31.60
2018-04-23T20:34:24.531Z,27.30
2018-04-23T20:36:50.844Z,38.80
2018-04-23T20:39:17.189Z,32.43
2018-04-23T20:41:43.487Z,29.30
2018-04-23T20:44:09.863Z,35.73
2018-04-23T20:46:37.103Z,34.60
2018-04-23T20:49:03.493Z,29.73
2018-04-23T20:51:29.833Z,25.13
2018-04-23T20:53:56.354Z,26.73
2018-04-23T20:56:22.625Z,33.17
2018-04-23T20:58:48.915Z,30.63
2018-04-23T21:01:15.195Z,28.77
2018-04-23T21:03:41.486Z,29.50
2018-04-23T21:06:07.761Z,29.30
2018-04-23T21:08:34.055Z,33.93
2018-04-23T21:11:00.384Z,31.93
2018-04-23T21:13:26.654Z,36.63
2018-04-23T21:15:54.422Z,32.10
2018-04-23T21:18:21.449Z,32.60
2018-04-23T21:20:47.755Z,27.97
2018-04-23T21:23:14.024Z,31.87
2018-04-23T21:25:40.375Z,31.03
2018-04-23T21:28:07.395Z,24.87
2018-04-23T21:30:33.690Z,23.90
2018-04-23T21:32:59.958Z,24.00
2018-04-23T21:35:26.269Z,22.50
2018-04-23T21:37:52.617Z,27.50
2018-04-23T21:40:19.014Z,20.70
2018-04-23T21:42:45.271Z,20.67
2018-04-23T21:45:11.601Z,21.90
2018-04-23T21:47:37.923Z,18.60
2018-04-23T21:50:04.229Z,19.00
2018-04-23T21:52:30.563Z,18.80
2018-04-23T21:54:56.866Z,20.70
2018-04-23T21:57:23.912Z,17.40
2018-04-23T21:59:50.990Z,22.73
2018-04-23T22:02:17.246Z,18.77
2018-04-23T22:04:43.581Z,23.90
2018-04-23T22:07:09.926Z,19.43
2018-04-23T22:09:36.199Z,24.97
2018-04-23T22:12:02.496Z,17.73
2018-04-23T22:14:29.523Z,23.27
2018-04-23T22:16:55.802Z,17.30
2018-04-23T22:19:22.097Z,20.70
2018-04-23T22:21:48.442Z,18.70
2018-04-23T22:24:15.490Z,19.93
2018-04-23T22:26:42.541Z,25.10
2018-04-23T22:29:08.797Z,22.57
2018-04-23T22:31:35.121Z,19.43
2018-04-23T22:34:01.467Z,18.00
2018-04-23T22:36:27.762Z,19.67
2018-04-23T22:38:54.826Z,19.47
2018-04-23T22:41:21.099Z,20.90
2018-04-23T22:43:47.349Z,21.30
2018-04-23T22:46:13.609Z,21.63
2018-04-23T22:48:40.679Z,23.83
2018-04-23T22:51:06.977Z,25.47
2018-04-23T22:53:34.000Z,26.30
2018-04-23T22:56:00.280Z,21.70
2018-04-23T22:58:26.581Z,22.10
2018-04-23T23:00:53.603Z,27.00
2018-04-23T23:03:19.870Z,24.20
2018-04-23T23:05:46.895Z,27.80
2018-04-23T23:08:13.181Z,25.80
2018-04-23T23:10:39.466Z,32.00
2018-04-23T23:13:05.750Z,28.70
2018-04-23T23:15:32.057Z,26.40
2018-04-23T23:17:58.386Z,24.10
2018-04-23T23:20:24.647Z,25.50
2018-04-23T23:22:50.903Z,27.10
2018-04-23T23:25:17.187Z,24.27
2018-04-23T23:27:43.502Z,27.00
2018-04-23T23:30:09.757Z,25.33
2018-04-23T23:32:36.013Z,25.30
2018-04-23T23:35:02.721Z,28.73
2018-04-23T23:37:29.001Z,32.40
2018-04-23T23:39:55.297Z,24.57
2018-04-23T23:42:21.586Z,25.00
2018-04-23T23:44:48.608Z,25.10
2018-04-23T23:47:14.868Z,33.10
2018-04-23T23:49:41.193Z,23.30
2018-04-23T23:52:08.229Z,26.80
2018-04-23T23:54:35.218Z,24.50
2018-04-23T23:57:01.514Z,24.13
2018-04-23T23:59:28.510Z,20.80
